AirNav   Duncan Aviation - Near you to keep you flying
 
 1633 users online  

WA16 Banas Field Airport
Brooklyn, Washington, USA

GOING TO BROOKLYN?


FAA INFORMATION EFFECTIVE 04 NOVEMBER 2021

Location

FAA Identifier: WA16
Lat/Long: 46-47-59.0000N 123-32-28.0000W
46-47.983333N 123-32.466667W
46.7997222,-123.5411111
(estimated)
Elevation: 180 ft. / 55 m (estimated)
Variation: 20E (1990)
From city: 3 miles NW of BROOKLYN, WA
Time zone: UTC -8 (UTC -7 during Daylight Saving Time)
Zip code: 98537

Airport Operations

Airport use: Private use. Permission required prior to landing
Activation date: 10/1992
Control tower: no
ARTCC: SEATTLE CENTER
FSS: SEATTLE FLIGHT SERVICE STATION
Attendance: UNATNDD
Wind indicator: yes
Segmented circle: no

Airport Communications

WX ASOS at HQM (19 nm NW): 135.775 (360-538-7021)

Nearby radio navigation aids

VOR radial/distance  VOR name  Freq  Var
HQMr091/26.5HOQUIAM VORTAC117.7019E
OLMr230/28.2OLYMPIA VORTAC113.4019E

Airport Services

Runway Information

Runway 14/32

Dimensions: 1000 x 60 ft. / 305 x 18 m
Surface: turf, in fair condition
RUNWAY 14  RUNWAY 32
Traffic pattern: leftleft
Obstructions: none100 ft. trees, 500 ft. from runway

Airport Ownership and Management from official FAA records

Ownership: Privately-owned
Owner: JAMES A BANAS
2132 NORTH RIVER ROAD
COSMOPOLIS, WA 98537-9720
Phone 360-537-9696
Manager: JAMES A BANAS
2132 NORTH RIVER ROAD
COSMOPOLIS, WA 98537-9720
Phone 360-537-9696

Airport Operational Statistics

Aircraft based on the field: 1
Single engine airplanes: 1
    

Additional Remarks

FOR CD CTC SEATTLE ARTCC AT 253-351-3694.

Instrument Procedures

There are no published instrument procedures at WA16.

Some nearby airports with instrument procedures:

KHQM - Bowerman Airport (19 nm NW)
KCLS - Chehalis-Centralia Airport (24 nm E)
KOLM - Olympia Regional Airport (28 nm E)
KSHN - Sanderson Field Airport (31 nm NE)
KTDO - Ed Carlson Memorial Field - South Lewis County Airport (36 nm SE)
 
Loc | Ops | Rwys | IFR | FBO | Links
Com | Nav | Svcs | Stats | Notes
Area around WA16 (Banas Field Airport)
 
Road maps at: MapQuest Bing Google
 
Aerial photo
No photo
 
Sectional chart

 
Airport distance calculator
Flying to Banas Field Airport? Find the distance to fly.

From to WA16

Sunrise and sunset
Times for 30-Nov-2021
 Local
(UTC-8)
 Zulu
(UTC)
Morning civil twilight07:0415:04
Sunrise07:3815:38
Sunset16:2700:27
Evening civil twilight17:0201:02

Current date and time
Zulu (UTC)  30-Nov-2021 18:09:56
Local (UTC-8)  30-Nov-2021 10:09:56
 
METAR
KHQM 
19nm NW 
301753Z AUTO 19011KT 3SM RA BR SCT011 OVC021 12/10 A3021 RMK AO2 SLP234 P0010 60036 T01170100 10117 20111 53008
KCLS 
24nm E 
301755Z AUTO 19007G14KT 9SM -DZ BKN039 12/11 A3025 RMK AO2
KOLM 
28nm E 
301754Z 20009KT 10SM -RA OVC035 11/09 A3023 RMK AO2 SLP238 P0000 60002 T01110094 10122 20111 53022
KSHN 
31nm NE 
301753Z AUTO 22005KT 4SM -RA BR BKN014 OVC019 11/10 A3020 RMK AO2 SLP228 P0003 60023 T01060100 10111 20106 53016
TAF
KHQM 
19nm NW 
301450Z 3015/0112 18009KT P6SM -RA SCT015 OVC035 TEMPO 3015/3018 4SM -RA BR BKN015 OVC025 FM301800 18012KT 4SM -RA BR OVC015 FM302000 18013G22KT 4SM -RA BR OVC010 FM010600 17012G18KT 6SM BR VCSH BKN008 OVC015
NOTAMs
Click for the latest NOTAMs
NOTAMs are issued by the DoD/FAA and will open in a separate window not controlled by AirNav.

 

 
 

Would you like to see your business listed on this page?

 If your business provides an interesting product or service to pilots, flight crews, aircraft, or users of the Banas Field Airport, you should consider listing it here.  To start the listing process, click on the button below
 
Add a business
 

Other Pages about Banas Field Airport

Update a link
 
Copyright © AirNav, LLC. All rights reserved. Privacy Policy  Contact